Mono Lake, California
Current Conditions -  °F | °C
As of 11:15 AM on Friday 24 Oct 2014 (Local Time) from KMMH Reporting Station
Clear Clear  
Wind Chill: 64°   Ceiling: Unl
Heat Index: 64°   Visibility: 10mi
Dew Point: 21°   Wind: 13mph
Humidity: 19%   Direction: 110°ESE
Pressure: 30.24"   Gusts: 20mph
Location:  38.0132°N, 118.966°W
Report Text: KMMH 241815Z AUTO 11011G17KT 10SM CLR 18/M06 A3024 RMK AO1
Loading
Personal Weather Stations






























Interactive Weather Map
Tropical Storm Tracking
New forecast layout! Learn more

10-Day Weather Forecast

Advertisements
Track Severe Weather on mobile